sensor_id;sensor_type;location;lat;lon;timestamp;P1;durP1;ratioP1;P2;durP2;ratioP2
35667;SDS011;22158;59.280;17.806;2024-03-06T00:01:37;8.95;;;4.80;;
35667;SDS011;22158;59.280;17.806;2024-03-06T00:04:03;9.75;;;3.97;;
35667;SDS011;22158;59.280;17.806;2024-03-06T00:06:29;6.88;;;4.55;;
35667;SDS011;22158;59.280;17.806;2024-03-06T00:08:55;10.27;;;4.63;;
35667;SDS011;22158;59.280;17.806;2024-03-06T00:11:21;9.45;;;4.18;;
35667;SDS011;22158;59.280;17.806;2024-03-06T00:13:47;8.63;;;4.28;;
35667;SDS011;22158;59.280;17.806;2024-03-06T00:16:13;8.27;;;3.90;;
35667;SDS011;22158;59.280;17.806;2024-03-06T00:18:39;10.48;;;4.78;;
35667;SDS011;22158;59.280;17.806;2024-03-06T00:21:05;10.32;;;4.97;;
35667;SDS011;22158;59.280;17.806;2024-03-06T00:23:31;9.18;;;4.20;;
35667;SDS011;22158;59.280;17.806;2024-03-06T00:25:57;6.85;;;3.90;;
35667;SDS011;22158;59.280;17.806;2024-03-06T00:28:23;6.03;;;3.47;;
35667;SDS011;22158;59.280;17.806;2024-03-06T00:30:49;7.18;;;3.78;;
35667;SDS011;22158;59.280;17.806;2024-03-06T00:33:15;7.78;;;3.72;;
35667;SDS011;22158;59.280;17.806;2024-03-06T00:35:41;7.65;;;3.75;;
35667;SDS011;22158;59.280;17.806;2024-03-06T00:38:06;8.27;;;3.38;;
35667;SDS011;22158;59.280;17.806;2024-03-06T00:40:32;5.72;;;3.47;;
35667;SDS011;22158;59.280;17.806;2024-03-06T00:42:58;11.20;;;5.07;;
35667;SDS011;22158;59.280;17.806;2024-03-06T00:45:24;8.13;;;3.75;;
35667;SDS011;22158;59.280;17.806;2024-03-06T00:47:49;7.28;;;3.80;;
35667;SDS011;22158;59.280;17.806;2024-03-06T00:50:15;7.32;;;3.53;;
35667;SDS011;22158;59.280;17.806;2024-03-06T00:52:45;6.22;;;3.10;;
35667;SDS011;22158;59.280;17.806;2024-03-06T00:55:10;7.45;;;3.60;;
35667;SDS011;22158;59.280;17.806;2024-03-06T00:57:36;8.13;;;3.88;;
35667;SDS011;22158;59.280;17.806;2024-03-06T01:00:02;9.63;;;3.28;;
35667;SDS011;22158;59.280;17.806;2024-03-06T01:02:36;7.60;;;3.47;;
35667;SDS011;22158;59.280;17.806;2024-03-06T01:05:05;7.65;;;3.58;;
35667;SDS011;22158;59.280;17.806;2024-03-06T01:07:32;8.05;;;3.85;;
35667;SDS011;22158;59.280;17.806;2024-03-06T01:09:58;6.97;;;3.88;;
35667;SDS011;22158;59.280;17.806;2024-03-06T01:12:24;9.73;;;4.10;;
35667;SDS011;22158;59.280;17.806;2024-03-06T01:14:50;6.63;;;3.88;;
35667;SDS011;22158;59.280;17.806;2024-03-06T01:17:16;6.97;;;3.67;;
35667;SDS011;22158;59.280;17.806;2024-03-06T01:19:42;6.53;;;3.83;;
35667;SDS011;22158;59.280;17.806;2024-03-06T01:22:10;7.50;;;3.80;;
35667;SDS011;22158;59.280;17.806;2024-03-06T01:24:38;5.45;;;3.17;;
35667;SDS011;22158;59.280;17.806;2024-03-06T01:27:04;10.45;;;3.85;;
35667;SDS011;22158;59.280;17.806;2024-03-06T01:29:30;8.40;;;3.55;;
35667;SDS011;22158;59.280;17.806;2024-03-06T01:31:56;9.98;;;3.55;;
35667;SDS011;22158;59.280;17.806;2024-03-06T01:34:22;6.00;;;3.08;;
35667;SDS011;22158;59.280;17.806;2024-03-06T01:36:48;5.18;;;2.92;;
35667;SDS011;22158;59.280;17.806;2024-03-06T01:39:13;8.25;;;2.88;;
35667;SDS011;22158;59.280;17.806;2024-03-06T01:41:46;8.18;;;3.30;;
35667;SDS011;22158;59.280;17.806;2024-03-06T01:44:13;5.15;;;2.83;;
35667;SDS011;22158;59.280;17.806;2024-03-06T01:46:39;7.32;;;2.75;;
35667;SDS011;22158;59.280;17.806;2024-03-06T01:49:05;6.63;;;2.97;;
35667;SDS011;22158;59.280;17.806;2024-03-06T01:51:32;9.23;;;3.47;;
35667;SDS011;22158;59.280;17.806;2024-03-06T01:53:58;5.55;;;3.03;;
35667;SDS011;22158;59.280;17.806;2024-03-06T01:56:29;6.97;;;3.28;;
35667;SDS011;22158;59.280;17.806;2024-03-06T01:58:56;7.38;;;4.38;;
35667;SDS011;22158;59.280;17.806;2024-03-06T02:01:23;5.38;;;3.00;;
35667;SDS011;22158;59.280;17.806;2024-03-06T02:03:49;8.85;;;3.28;;
35667;SDS011;22158;59.280;17.806;2024-03-06T02:06:16;7.22;;;3.53;;
35667;SDS011;22158;59.280;17.806;2024-03-06T02:08:45;6.53;;;3.88;;
35667;SDS011;22158;59.280;17.806;2024-03-06T02:11:11;6.70;;;3.28;;
35667;SDS011;22158;59.280;17.806;2024-03-06T02:13:38;8.30;;;3.25;;
35667;SDS011;22158;59.280;17.806;2024-03-06T02:16:04;8.13;;;4.28;;
35667;SDS011;22158;59.280;17.806;2024-03-06T02:18:30;6.78;;;3.38;;
35667;SDS011;22158;59.280;17.806;2024-03-06T02:20:56;6.47;;;3.33;;
35667;SDS011;22158;59.280;17.806;2024-03-06T02:23:22;7.10;;;3.55;;
35667;SDS011;22158;59.280;17.806;2024-03-06T02:25:48;6.35;;;3.22;;
35667;SDS011;22158;59.280;17.806;2024-03-06T02:28:15;5.28;;;3.42;;
35667;SDS011;22158;59.280;17.806;2024-03-06T02:30:42;8.73;;;3.78;;
35667;SDS011;22158;59.280;17.806;2024-03-06T02:33:08;6.70;;;3.42;;
35667;SDS011;22158;59.280;17.806;2024-03-06T02:35:36;6.75;;;3.60;;
35667;SDS011;22158;59.280;17.806;2024-03-06T02:38:03;8.10;;;3.35;;
35667;SDS011;22158;59.280;17.806;2024-03-06T02:40:32;7.55;;;3.63;;
35667;SDS011;22158;59.280;17.806;2024-03-06T02:42:58;8.43;;;4.22;;
35667;SDS011;22158;59.280;17.806;2024-03-06T02:45:24;8.25;;;3.08;;
35667;SDS011;22158;59.280;17.806;2024-03-06T02:47:49;6.57;;;3.40;;
35667;SDS011;22158;59.280;17.806;2024-03-06T02:50:15;5.85;;;3.38;;
35667;SDS011;22158;59.280;17.806;2024-03-06T02:52:41;16.08;;;4.35;;
35667;SDS011;22158;59.280;17.806;2024-03-06T02:55:06;13.27;;;4.13;;
35667;SDS011;22158;59.280;17.806;2024-03-06T02:57:32;8.45;;;4.38;;
35667;SDS011;22158;59.280;17.806;2024-03-06T02:59:58;7.80;;;3.53;;
35667;SDS011;22158;59.280;17.806;2024-03-06T03:02:24;11.35;;;3.83;;
35667;SDS011;22158;59.280;17.806;2024-03-06T03:04:50;11.20;;;4.63;;
35667;SDS011;22158;59.280;17.806;2024-03-06T03:07:17;10.82;;;4.45;;
35667;SDS011;22158;59.280;17.806;2024-03-06T03:09:46;8.68;;;4.32;;
35667;SDS011;22158;59.280;17.806;2024-03-06T03:12:12;11.52;;;5.13;;
35667;SDS011;22158;59.280;17.806;2024-03-06T03:14:41;16.08;;;4.85;;
35667;SDS011;22158;59.280;17.806;2024-03-06T03:17:08;8.70;;;4.18;;
35667;SDS011;22158;59.280;17.806;2024-03-06T03:19:34;7.40;;;5.32;;
35667;SDS011;22158;59.280;17.806;2024-03-06T03:22:00;8.38;;;3.83;;
35667;SDS011;22158;59.280;17.806;2024-03-06T03:24:29;12.75;;;4.03;;
35667;SDS011;22158;59.280;17.806;2024-03-06T03:26:55;13.85;;;4.32;;
35667;SDS011;22158;59.280;17.806;2024-03-06T03:29:21;7.32;;;3.83;;
35667;SDS011;22158;59.280;17.806;2024-03-06T03:31:47;6.78;;;4.50;;
35667;SDS011;22158;59.280;17.806;2024-03-06T03:34:12;11.65;;;4.22;;
35667;SDS011;22158;59.280;17.806;2024-03-06T03:36:42;10.93;;;4.43;;
35667;SDS011;22158;59.280;17.806;2024-03-06T03:39:11;12.27;;;4.35;;
35667;SDS011;22158;59.280;17.806;2024-03-06T03:41:45;8.20;;;3.45;;
35667;SDS011;22158;59.280;17.806;2024-03-06T03:44:18;10.52;;;4.30;;
35667;SDS011;22158;59.280;17.806;2024-03-06T03:46:44;5.25;;;3.33;;
35667;SDS011;22158;59.280;17.806;2024-03-06T03:49:10;13.30;;;5.47;;
35667;SDS011;22158;59.280;17.806;2024-03-06T03:51:36;8.02;;;3.90;;
35667;SDS011;22158;59.280;17.806;2024-03-06T03:54:03;8.13;;;4.57;;
35667;SDS011;22158;59.280;17.806;2024-03-06T03:56:29;11.05;;;4.05;;
35667;SDS011;22158;59.280;17.806;2024-03-06T03:58:55;7.55;;;3.80;;
35667;SDS011;22158;59.280;17.806;2024-03-06T04:01:22;6.65;;;3.60;;
35667;SDS011;22158;59.280;17.806;2024-03-06T04:03:48;7.63;;;3.55;;
35667;SDS011;22158;59.280;17.806;2024-03-06T04:06:14;8.88;;;3.67;;
35667;SDS011;22158;59.280;17.806;2024-03-06T04:08:39;8.80;;;3.40;;
35667;SDS011;22158;59.280;17.806;2024-03-06T04:11:06;9.00;;;4.15;;
35667;SDS011;22158;59.280;17.806;2024-03-06T04:13:35;13.90;;;4.05;;
35667;SDS011;22158;59.280;17.806;2024-03-06T04:16:01;10.15;;;3.58;;
35667;SDS011;22158;59.280;17.806;2024-03-06T04:18:28;9.40;;;4.25;;
35667;SDS011;22158;59.280;17.806;2024-03-06T04:20:54;9.93;;;4.05;;
35667;SDS011;22158;59.280;17.806;2024-03-06T04:23:20;10.65;;;3.83;;
35667;SDS011;22158;59.280;17.806;2024-03-06T04:25:46;11.05;;;4.55;;
35667;SDS011;22158;59.280;17.806;2024-03-06T04:28:11;7.60;;;4.25;;
35667;SDS011;22158;59.280;17.806;2024-03-06T04:30:37;14.48;;;3.95;;
35667;SDS011;22158;59.280;17.806;2024-03-06T04:33:03;8.13;;;3.60;;
35667;SDS011;22158;59.280;17.806;2024-03-06T04:35:29;6.60;;;3.58;;
35667;SDS011;22158;59.280;17.806;2024-03-06T04:37:55;7.68;;;3.85;;
35667;SDS011;22158;59.280;17.806;2024-03-06T04:40:20;6.20;;;3.40;;
35667;SDS011;22158;59.280;17.806;2024-03-06T04:42:47;8.10;;;4.38;;
35667;SDS011;22158;59.280;17.806;2024-03-06T04:45:17;9.55;;;4.10;;
35667;SDS011;22158;59.280;17.806;2024-03-06T04:47:43;11.32;;;4.80;;
35667;SDS011;22158;59.280;17.806;2024-03-06T04:50:12;9.38;;;4.35;;
35667;SDS011;22158;59.280;17.806;2024-03-06T04:52:39;12.85;;;5.13;;
35667;SDS011;22158;59.280;17.806;2024-03-06T04:55:06;7.20;;;3.90;;
35667;SDS011;22158;59.280;17.806;2024-03-06T04:57:32;12.77;;;4.63;;
35667;SDS011;22158;59.280;17.806;2024-03-06T04:59:59;9.88;;;4.15;;
35667;SDS011;22158;59.280;17.806;2024-03-06T05:02:27;5.75;;;3.35;;
35667;SDS011;22158;59.280;17.806;2024-03-06T05:04:53;6.38;;;3.17;;
35667;SDS011;22158;59.280;17.806;2024-03-06T05:07:18;17.25;;;4.45;;
35667;SDS011;22158;59.280;17.806;2024-03-06T05:09:44;7.70;;;3.85;;
35667;SDS011;22158;59.280;17.806;2024-03-06T05:12:10;10.43;;;4.72;;
35667;SDS011;22158;59.280;17.806;2024-03-06T05:14:36;14.27;;;3.80;;
35667;SDS011;22158;59.280;17.806;2024-03-06T05:17:02;7.35;;;3.72;;
35667;SDS011;22158;59.280;17.806;2024-03-06T05:19:28;6.05;;;3.45;;
35667;SDS011;22158;59.280;17.806;2024-03-06T05:21:57;10.20;;;3.20;;
35667;SDS011;22158;59.280;17.806;2024-03-06T05:24:24;11.48;;;4.32;;
35667;SDS011;22158;59.280;17.806;2024-03-06T05:26:49;7.28;;;3.53;;
35667;SDS011;22158;59.280;17.806;2024-03-06T05:29:15;8.05;;;4.05;;
35667;SDS011;22158;59.280;17.806;2024-03-06T05:31:41;6.72;;;3.70;;
35667;SDS011;22158;59.280;17.806;2024-03-06T05:34:07;7.00;;;3.90;;
35667;SDS011;22158;59.280;17.806;2024-03-06T05:36:33;10.13;;;3.95;;
35667;SDS011;22158;59.280;17.806;2024-03-06T05:38:58;8.52;;;3.22;;
35667;SDS011;22158;59.280;17.806;2024-03-06T05:41:24;7.93;;;3.55;;
35667;SDS011;22158;59.280;17.806;2024-03-06T05:43:50;6.70;;;3.90;;
35667;SDS011;22158;59.280;17.806;2024-03-06T05:46:15;7.03;;;3.97;;
35667;SDS011;22158;59.280;17.806;2024-03-06T05:48:41;7.43;;;3.60;;
35667;SDS011;22158;59.280;17.806;2024-03-06T05:51:07;8.00;;;3.60;;
35667;SDS011;22158;59.280;17.806;2024-03-06T05:53:39;9.07;;;3.13;;
35667;SDS011;22158;59.280;17.806;2024-03-06T05:56:07;7.88;;;3.92;;
35667;SDS011;22158;59.280;17.806;2024-03-06T05:58:33;10.63;;;4.60;;
35667;SDS011;22158;59.280;17.806;2024-03-06T06:00:59;5.55;;;3.22;;
35667;SDS011;22158;59.280;17.806;2024-03-06T06:03:26;9.52;;;3.90;;
35667;SDS011;22158;59.280;17.806;2024-03-06T06:05:53;7.10;;;3.45;;
35667;SDS011;22158;59.280;17.806;2024-03-06T06:08:19;6.07;;;3.72;;
35667;SDS011;22158;59.280;17.806;2024-03-06T06:10:45;11.55;;;3.85;;
35667;SDS011;22158;59.280;17.806;2024-03-06T06:13:10;9.93;;;3.67;;
35667;SDS011;22158;59.280;17.806;2024-03-06T06:15:36;7.00;;;3.05;;
35667;SDS011;22158;59.280;17.806;2024-03-06T06:18:02;6.03;;;3.15;;
35667;SDS011;22158;59.280;17.806;2024-03-06T06:20:28;8.18;;;3.70;;
35667;SDS011;22158;59.280;17.806;2024-03-06T06:22:53;5.57;;;3.40;;
35667;SDS011;22158;59.280;17.806;2024-03-06T06:25:19;12.27;;;3.40;;
35667;SDS011;22158;59.280;17.806;2024-03-06T06:27:45;8.23;;;3.53;;
35667;SDS011;22158;59.280;17.806;2024-03-06T06:30:11;5.88;;;3.38;;
35667;SDS011;22158;59.280;17.806;2024-03-06T06:32:37;6.22;;;3.17;;
35667;SDS011;22158;59.280;17.806;2024-03-06T06:35:04;10.52;;;3.83;;
35667;SDS011;22158;59.280;17.806;2024-03-06T06:37:30;6.50;;;3.00;;
35667;SDS011;22158;59.280;17.806;2024-03-06T06:39:56;6.57;;;3.97;;
35667;SDS011;22158;59.280;17.806;2024-03-06T06:42:21;8.63;;;3.00;;
35667;SDS011;22158;59.280;17.806;2024-03-06T06:44:47;5.35;;;2.90;;
35667;SDS011;22158;59.280;17.806;2024-03-06T06:47:13;13.80;;;3.08;;
35667;SDS011;22158;59.280;17.806;2024-03-06T06:49:38;9.90;;;3.88;;
35667;SDS011;22158;59.280;17.806;2024-03-06T06:52:04;14.85;;;3.35;;
35667;SDS011;22158;59.280;17.806;2024-03-06T06:54:30;9.55;;;3.55;;
35667;SDS011;22158;59.280;17.806;2024-03-06T06:56:56;11.77;;;3.55;;
35667;SDS011;22158;59.280;17.806;2024-03-06T06:59:22;7.05;;;3.45;;
35667;SDS011;22158;59.280;17.806;2024-03-06T07:01:48;9.60;;;2.92;;
35667;SDS011;22158;59.280;17.806;2024-03-06T07:04:13;8.52;;;3.08;;
35667;SDS011;22158;59.280;17.806;2024-03-06T07:06:41;7.80;;;3.35;;
35667;SDS011;22158;59.280;17.806;2024-03-06T07:09:07;5.03;;;3.13;;
35667;SDS011;22158;59.280;17.806;2024-03-06T07:11:34;7.07;;;3.47;;
35667;SDS011;22158;59.280;17.806;2024-03-06T07:14:00;6.32;;;3.50;;
35667;SDS011;22158;59.280;17.806;2024-03-06T07:16:25;7.43;;;2.53;;
35667;SDS011;22158;59.280;17.806;2024-03-06T07:18:51;6.28;;;2.83;;
35667;SDS011;22158;59.280;17.806;2024-03-06T07:21:17;7.35;;;2.65;;
35667;SDS011;22158;59.280;17.806;2024-03-06T07:23:43;7.75;;;2.65;;
35667;SDS011;22158;59.280;17.806;2024-03-06T07:26:09;4.90;;;2.65;;
35667;SDS011;22158;59.280;17.806;2024-03-06T07:28:35;6.05;;;2.50;;
35667;SDS011;22158;59.280;17.806;2024-03-06T07:31:02;10.63;;;3.70;;
35667;SDS011;22158;59.280;17.806;2024-03-06T07:33:28;8.25;;;2.78;;
35667;SDS011;22158;59.280;17.806;2024-03-06T07:35:55;8.50;;;2.40;;
35667;SDS011;22158;59.280;17.806;2024-03-06T07:38:21;5.05;;;2.75;;
35667;SDS011;22158;59.280;17.806;2024-03-06T07:40:48;5.95;;;2.30;;
35667;SDS011;22158;59.280;17.806;2024-03-06T07:43:14;4.07;;;2.17;;
35667;SDS011;22158;59.280;17.806;2024-03-06T07:45:39;5.72;;;2.55;;
35667;SDS011;22158;59.280;17.806;2024-03-06T07:48:06;9.18;;;2.45;;
35667;SDS011;22158;59.280;17.806;2024-03-06T07:50:31;6.03;;;2.38;;
35667;SDS011;22158;59.280;17.806;2024-03-06T07:52:57;11.88;;;2.70;;
35667;SDS011;22158;59.280;17.806;2024-03-06T07:55:24;9.02;;;2.33;;
35667;SDS011;22158;59.280;17.806;2024-03-06T07:57:50;5.53;;;2.58;;
35667;SDS011;22158;59.280;17.806;2024-03-06T08:00:16;6.35;;;1.83;;
35667;SDS011;22158;59.280;17.806;2024-03-06T08:02:45;4.68;;;2.10;;
35667;SDS011;22158;59.280;17.806;2024-03-06T08:05:15;5.25;;;2.38;;
35667;SDS011;22158;59.280;17.806;2024-03-06T08:07:41;4.82;;;2.45;;
35667;SDS011;22158;59.280;17.806;2024-03-06T08:10:10;4.00;;;2.00;;
35667;SDS011;22158;59.280;17.806;2024-03-06T08:12:42;8.48;;;2.00;;
35667;SDS011;22158;59.280;17.806;2024-03-06T08:15:10;7.07;;;2.60;;
35667;SDS011;22158;59.280;17.806;2024-03-06T08:17:38;7.07;;;2.67;;
35667;SDS011;22158;59.280;17.806;2024-03-06T08:20:06;9.55;;;2.55;;
35667;SDS011;22158;59.280;17.806;2024-03-06T08:22:37;3.40;;;1.70;;
35667;SDS011;22158;59.280;17.806;2024-03-06T08:25:12;4.80;;;2.38;;
35667;SDS011;22158;59.280;17.806;2024-03-06T08:27:39;7.47;;;2.70;;
35667;SDS011;22158;59.280;17.806;2024-03-06T08:30:06;6.65;;;2.20;;
35667;SDS011;22158;59.280;17.806;2024-03-06T08:32:33;4.72;;;2.17;;
35667;SDS011;22158;59.280;17.806;2024-03-06T08:35:09;4.75;;;2.45;;
35667;SDS011;22158;59.280;17.806;2024-03-06T08:37:39;8.18;;;2.72;;
35667;SDS011;22158;59.280;17.806;2024-03-06T08:40:06;8.57;;;2.25;;
35667;SDS011;22158;59.280;17.806;2024-03-06T08:42:35;12.43;;;2.72;;
35667;SDS011;22158;59.280;17.806;2024-03-06T08:45:01;5.68;;;2.55;;
35667;SDS011;22158;59.280;17.806;2024-03-06T08:47:27;5.70;;;2.95;;
35667;SDS011;22158;59.280;17.806;2024-03-06T08:49:53;5.47;;;2.28;;
35667;SDS011;22158;59.280;17.806;2024-03-06T08:52:19;5.78;;;2.30;;
35667;SDS011;22158;59.280;17.806;2024-03-06T08:54:45;16.02;;;2.75;;
35667;SDS011;22158;59.280;17.806;2024-03-06T08:57:11;4.38;;;2.20;;
35667;SDS011;22158;59.280;17.806;2024-03-06T08:59:37;9.85;;;3.35;;
35667;SDS011;22158;59.280;17.806;2024-03-06T09:02:15;7.20;;;4.00;;
35667;SDS011;22158;59.280;17.806;2024-03-06T09:04:43;5.82;;;2.60;;
35667;SDS011;22158;59.280;17.806;2024-03-06T09:07:10;3.13;;;2.25;;
35667;SDS011;22158;59.280;17.806;2024-03-06T09:09:36;5.30;;;2.55;;
35667;SDS011;22158;59.280;17.806;2024-03-06T09:12:03;6.80;;;3.10;;
35667;SDS011;22158;59.280;17.806;2024-03-06T09:14:35;7.60;;;2.90;;
35667;SDS011;22158;59.280;17.806;2024-03-06T09:17:04;5.45;;;2.28;;
35667;SDS011;22158;59.280;17.806;2024-03-06T09:19:31;8.00;;;2.78;;
35667;SDS011;22158;59.280;17.806;2024-03-06T09:21:58;8.45;;;3.10;;
35667;SDS011;22158;59.280;17.806;2024-03-06T09:24:24;7.88;;;3.08;;
35667;SDS011;22158;59.280;17.806;2024-03-06T09:26:50;7.25;;;2.83;;
35667;SDS011;22158;59.280;17.806;2024-03-06T09:29:16;5.00;;;2.85;;
35667;SDS011;22158;59.280;17.806;2024-03-06T09:31:42;7.30;;;3.15;;
35667;SDS011;22158;59.280;17.806;2024-03-06T09:34:08;8.23;;;2.72;;
35667;SDS011;22158;59.280;17.806;2024-03-06T09:36:40;5.90;;;2.88;;
35667;SDS011;22158;59.280;17.806;2024-03-06T09:39:17;15.68;;;3.20;;
35667;SDS011;22158;59.280;17.806;2024-03-06T09:41:48;4.05;;;2.45;;
35667;SDS011;22158;59.280;17.806;2024-03-06T09:44:17;11.13;;;3.53;;
35667;SDS011;22158;59.280;17.806;2024-03-06T09:46:44;6.55;;;2.67;;
35667;SDS011;22158;59.280;17.806;2024-03-06T09:49:10;7.38;;;2.40;;
35667;SDS011;22158;59.280;17.806;2024-03-06T09:51:39;4.43;;;2.88;;
35667;SDS011;22158;59.280;17.806;2024-03-06T09:54:07;6.93;;;2.83;;
35667;SDS011;22158;59.280;17.806;2024-03-06T09:56:33;6.15;;;3.05;;
35667;SDS011;22158;59.280;17.806;2024-03-06T09:58:59;7.05;;;2.50;;
35667;SDS011;22158;59.280;17.806;2024-03-06T10:01:25;5.82;;;2.72;;
35667;SDS011;22158;59.280;17.806;2024-03-06T10:03:53;8.07;;;2.97;;
35667;SDS011;22158;59.280;17.806;2024-03-06T10:06:18;8.02;;;2.95;;
35667;SDS011;22158;59.280;17.806;2024-03-06T10:08:45;5.00;;;2.60;;
35667;SDS011;22158;59.280;17.806;2024-03-06T10:11:11;12.52;;;3.25;;
35667;SDS011;22158;59.280;17.806;2024-03-06T10:13:37;13.40;;;3.78;;
35667;SDS011;22158;59.280;17.806;2024-03-06T10:16:04;9.77;;;3.28;;
35667;SDS011;22158;59.280;17.806;2024-03-06T10:18:34;5.75;;;2.25;;
35667;SDS011;22158;59.280;17.806;2024-03-06T10:21:01;4.88;;;2.72;;
35667;SDS011;22158;59.280;17.806;2024-03-06T10:23:27;9.38;;;3.08;;
35667;SDS011;22158;59.280;17.806;2024-03-06T10:25:54;5.50;;;2.65;;
35667;SDS011;22158;59.280;17.806;2024-03-06T10:28:21;3.50;;;2.42;;
35667;SDS011;22158;59.280;17.806;2024-03-06T10:30:48;8.25;;;2.50;;
35667;SDS011;22158;59.280;17.806;2024-03-06T10:33:15;7.75;;;2.70;;
35667;SDS011;22158;59.280;17.806;2024-03-06T10:35:44;4.57;;;2.15;;
35667;SDS011;22158;59.280;17.806;2024-03-06T10:38:11;10.60;;;2.65;;
35667;SDS011;22158;59.280;17.806;2024-03-06T10:40:38;7.60;;;3.00;;
35667;SDS011;22158;59.280;17.806;2024-03-06T10:43:05;5.20;;;2.63;;
35667;SDS011;22158;59.280;17.806;2024-03-06T10:48:00;7.88;;;2.38;;
35667;SDS011;22158;59.280;17.806;2024-03-06T10:50:28;9.35;;;2.78;;
35667;SDS011;22158;59.280;17.806;2024-03-06T10:52:54;7.20;;;2.53;;
35667;SDS011;22158;59.280;17.806;2024-03-06T10:55:21;4.25;;;2.33;;
35667;SDS011;22158;59.280;17.806;2024-03-06T10:57:48;9.73;;;3.10;;
35667;SDS011;22158;59.280;17.806;2024-03-06T11:00:17;6.80;;;2.80;;
35667;SDS011;22158;59.280;17.806;2024-03-06T11:02:46;6.90;;;2.15;;
35667;SDS011;22158;59.280;17.806;2024-03-06T11:05:15;8.90;;;3.30;;
35667;SDS011;22158;59.280;17.806;2024-03-06T11:07:41;8.52;;;2.67;;
35667;SDS011;22158;59.280;17.806;2024-03-06T11:10:08;5.70;;;3.05;;
35667;SDS011;22158;59.280;17.806;2024-03-06T11:12:41;8.10;;;2.67;;
35667;SDS011;22158;59.280;17.806;2024-03-06T11:15:13;7.97;;;2.55;;
35667;SDS011;22158;59.280;17.806;2024-03-06T11:17:41;4.22;;;2.38;;
35667;SDS011;22158;59.280;17.806;2024-03-06T11:20:19;8.02;;;3.20;;
35667;SDS011;22158;59.280;17.806;2024-03-06T11:28:25;7.47;;;2.70;;
35667;SDS011;22158;59.280;17.806;2024-03-06T11:33:23;6.10;;;2.70;;
35667;SDS011;22158;59.280;17.806;2024-03-06T11:38:47;9.07;;;2.80;;
35667;SDS011;22158;59.280;17.806;2024-03-06T11:41:13;4.55;;;2.25;;
35667;SDS011;22158;59.280;17.806;2024-03-06T11:43:42;7.70;;;2.13;;
35667;SDS011;22158;59.280;17.806;2024-03-06T11:46:08;10.02;;;3.38;;
35667;SDS011;22158;59.280;17.806;2024-03-06T11:48:36;3.60;;;2.42;;
35667;SDS011;22158;59.280;17.806;2024-03-06T11:51:02;10.32;;;4.07;;
35667;SDS011;22158;59.280;17.806;2024-03-06T11:53:32;10.98;;;2.40;;
35667;SDS011;22158;59.280;17.806;2024-03-06T11:56:00;7.07;;;2.40;;
35667;SDS011;22158;59.280;17.806;2024-03-06T11:58:26;13.48;;;2.95;;
35667;SDS011;22158;59.280;17.806;2024-03-06T12:00:51;6.97;;;2.50;;
35667;SDS011;22158;59.280;17.806;2024-03-06T12:03:19;13.07;;;2.60;;
35667;SDS011;22158;59.280;17.806;2024-03-06T12:05:45;10.02;;;4.03;;
35667;SDS011;22158;59.280;17.806;2024-03-06T12:08:11;5.38;;;2.40;;
35667;SDS011;22158;59.280;17.806;2024-03-06T12:10:37;5.78;;;2.47;;
35667;SDS011;22158;59.280;17.806;2024-03-06T12:13:04;16.92;;;4.20;;
35667;SDS011;22158;59.280;17.806;2024-03-06T12:15:30;10.65;;;3.08;;
35667;SDS011;22158;59.280;17.806;2024-03-06T12:17:56;4.97;;;2.20;;
35667;SDS011;22158;59.280;17.806;2024-03-06T12:20:23;8.02;;;3.00;;
35667;SDS011;22158;59.280;17.806;2024-03-06T12:22:51;14.63;;;2.85;;
35667;SDS011;22158;59.280;17.806;2024-03-06T12:25:22;4.00;;;2.00;;
35667;SDS011;22158;59.280;17.806;2024-03-06T12:27:49;9.27;;;2.75;;
35667;SDS011;22158;59.280;17.806;2024-03-06T12:30:19;6.78;;;2.72;;
35667;SDS011;22158;59.280;17.806;2024-03-06T12:32:59;14.40;;;4.25;;
35667;SDS011;22158;59.280;17.806;2024-03-06T12:35:29;14.00;;;2.83;;
35667;SDS011;22158;59.280;17.806;2024-03-06T12:37:55;14.77;;;4.32;;
35667;SDS011;22158;59.280;17.806;2024-03-06T12:40:21;3.97;;;1.98;;
35667;SDS011;22158;59.280;17.806;2024-03-06T12:42:48;8.23;;;2.33;;
35667;SDS011;22158;59.280;17.806;2024-03-06T12:45:15;6.35;;;2.55;;
35667;SDS011;22158;59.280;17.806;2024-03-06T12:47:45;5.97;;;2.58;;
35667;SDS011;22158;59.280;17.806;2024-03-06T12:50:13;10.50;;;2.92;;
35667;SDS011;22158;59.280;17.806;2024-03-06T12:52:39;5.57;;;2.70;;
35667;SDS011;22158;59.280;17.806;2024-03-06T12:55:05;8.63;;;2.78;;
35667;SDS011;22158;59.280;17.806;2024-03-06T12:57:32;8.05;;;3.30;;
35667;SDS011;22158;59.280;17.806;2024-03-06T12:59:58;7.80;;;2.78;;
35667;SDS011;22158;59.280;17.806;2024-03-06T13:02:24;7.28;;;3.92;;
35667;SDS011;22158;59.280;17.806;2024-03-06T13:04:51;9.90;;;2.55;;
35667;SDS011;22158;59.280;17.806;2024-03-06T13:07:17;6.22;;;3.05;;
35667;SDS011;22158;59.280;17.806;2024-03-06T13:09:43;5.32;;;2.42;;
35667;SDS011;22158;59.280;17.806;2024-03-06T13:12:09;16.63;;;3.17;;
35667;SDS011;22158;59.280;17.806;2024-03-06T13:14:35;8.48;;;2.35;;
35667;SDS011;22158;59.280;17.806;2024-03-06T13:17:01;9.77;;;2.33;;
35667;SDS011;22158;59.280;17.806;2024-03-06T13:19:27;6.32;;;2.45;;
35667;SDS011;22158;59.280;17.806;2024-03-06T13:21:54;7.47;;;2.30;;
35667;SDS011;22158;59.280;17.806;2024-03-06T13:24:19;9.88;;;2.42;;
35667;SDS011;22158;59.280;17.806;2024-03-06T13:26:45;10.43;;;3.05;;
35667;SDS011;22158;59.280;17.806;2024-03-06T13:29:12;7.43;;;3.65;;
35667;SDS011;22158;59.280;17.806;2024-03-06T13:31:38;7.43;;;2.60;;
35667;SDS011;22158;59.280;17.806;2024-03-06T13:34:03;11.95;;;3.28;;
35667;SDS011;22158;59.280;17.806;2024-03-06T13:36:29;12.43;;;2.60;;
35667;SDS011;22158;59.280;17.806;2024-03-06T13:38:58;11.05;;;2.88;;
35667;SDS011;22158;59.280;17.806;2024-03-06T13:41:23;10.73;;;2.72;;
35667;SDS011;22158;59.280;17.806;2024-03-06T13:43:50;12.00;;;2.70;;
35667;SDS011;22158;59.280;17.806;2024-03-06T13:46:16;11.23;;;2.45;;
35667;SDS011;22158;59.280;17.806;2024-03-06T13:48:41;7.45;;;2.72;;
35667;SDS011;22158;59.280;17.806;2024-03-06T13:51:07;8.00;;;2.65;;
35667;SDS011;22158;59.280;17.806;2024-03-06T13:53:33;5.97;;;2.17;;
35667;SDS011;22158;59.280;17.806;2024-03-06T13:55:58;7.65;;;2.53;;
35667;SDS011;22158;59.280;17.806;2024-03-06T13:58:24;11.77;;;2.55;;
35667;SDS011;22158;59.280;17.806;2024-03-06T14:00:51;9.48;;;2.42;;
35667;SDS011;22158;59.280;17.806;2024-03-06T14:03:17;8.73;;;2.30;;
35667;SDS011;22158;59.280;17.806;2024-03-06T14:05:43;9.38;;;3.35;;
35667;SDS011;22158;59.280;17.806;2024-03-06T14:08:08;8.45;;;2.45;;
35667;SDS011;22158;59.280;17.806;2024-03-06T14:10:38;10.63;;;3.25;;
35667;SDS011;22158;59.280;17.806;2024-03-06T14:13:04;6.20;;;2.28;;
35667;SDS011;22158;59.280;17.806;2024-03-06T14:15:31;5.32;;;1.85;;
35667;SDS011;22158;59.280;17.806;2024-03-06T14:17:57;6.85;;;2.60;;
35667;SDS011;22158;59.280;17.806;2024-03-06T14:20:23;10.60;;;2.97;;
35667;SDS011;22158;59.280;17.806;2024-03-06T14:22:49;9.52;;;1.95;;
35667;SDS011;22158;59.280;17.806;2024-03-06T14:25:14;9.68;;;3.13;;
35667;SDS011;22158;59.280;17.806;2024-03-06T14:27:41;10.77;;;2.60;;
35667;SDS011;22158;59.280;17.806;2024-03-06T14:30:07;10.95;;;3.45;;
35667;SDS011;22158;59.280;17.806;2024-03-06T14:32:33;12.77;;;2.63;;
35667;SDS011;22158;59.280;17.806;2024-03-06T14:35:00;8.77;;;3.13;;
35667;SDS011;22158;59.280;17.806;2024-03-06T14:37:26;10.88;;;2.30;;
35667;SDS011;22158;59.280;17.806;2024-03-06T14:39:53;6.95;;;2.30;;
35667;SDS011;22158;59.280;17.806;2024-03-06T14:42:19;9.18;;;3.13;;